sensor_id;sensor_type;location;lat;lon;timestamp;pressure;altitude;pressure_sealevel;temperature;humidity
51603;BME280;37954;51.980;5.850;2023-07-09T00:00:45;101415.88;;;25.18;61.85
51603;BME280;37954;51.980;5.850;2023-07-09T00:04:58;101421.38;;;25.18;62.11
51603;BME280;37954;51.980;5.850;2023-07-09T00:09:19;101409.75;;;25.08;62.48
51603;BME280;37954;51.980;5.850;2023-07-09T00:13:31;101407.31;;;25.06;62.25
51603;BME280;37954;51.980;5.850;2023-07-09T00:17:43;101396.09;;;25.03;62.49
51603;BME280;37954;51.980;5.850;2023-07-09T00:21:55;101405.38;;;25.07;62.37
51603;BME280;37954;51.980;5.850;2023-07-09T00:26:12;101416.97;;;25.04;62.49
51603;BME280;37954;51.980;5.850;2023-07-09T00:30:25;101406.56;;;25.01;62.56
51603;BME280;37954;51.980;5.850;2023-07-09T00:34:37;101399.22;;;24.96;62.83
51603;BME280;37954;51.980;5.850;2023-07-09T00:38:50;101406.44;;;24.92;62.74
51603;BME280;37954;51.980;5.850;2023-07-09T00:43:10;101412.56;;;24.89;63.20
51603;BME280;37954;51.980;5.850;2023-07-09T00:56:39;101420.56;;;24.72;63.18
51603;BME280;37954;51.980;5.850;2023-07-09T01:00:55;101422.47;;;24.71;63.65
51603;BME280;37954;51.980;5.850;2023-07-09T01:05:07;101419.81;;;24.66;63.66
51603;BME280;37954;51.980;5.850;2023-07-09T01:09:21;101425.38;;;24.61;63.98
51603;BME280;37954;51.980;5.850;2023-07-09T01:13:33;101424.88;;;24.59;64.04
51603;BME280;37954;51.980;5.850;2023-07-09T01:17:46;101416.44;;;24.55;63.90
51603;BME280;37954;51.980;5.850;2023-07-09T01:22:00;101414.88;;;24.49;64.47
51603;BME280;37954;51.980;5.850;2023-07-09T01:26:14;101408.88;;;24.47;64.62
51603;BME280;37954;51.980;5.850;2023-07-09T01:30:36;101406.00;;;24.39;64.59
51603;BME280;37954;51.980;5.850;2023-07-09T01:34:51;101412.31;;;24.39;64.54
51603;BME280;37954;51.980;5.850;2023-07-09T01:39:04;101394.94;;;24.25;64.61
51603;BME280;37954;51.980;5.850;2023-07-09T01:43:16;101408.66;;;24.25;64.87
51603;BME280;37954;51.980;5.850;2023-07-09T01:47:28;101410.44;;;24.16;65.03
51603;BME280;37954;51.980;5.850;2023-07-09T01:51:40;101414.59;;;24.13;65.31
51603;BME280;37954;51.980;5.850;2023-07-09T01:55:52;101412.53;;;24.05;65.34
51603;BME280;37954;51.980;5.850;2023-07-09T02:00:10;101409.34;;;23.98;65.44
51603;BME280;37954;51.980;5.850;2023-07-09T02:04:26;101427.97;;;24.01;65.44
51603;BME280;37954;51.980;5.850;2023-07-09T02:08:39;101422.59;;;23.91;65.55
51603;BME280;37954;51.980;5.850;2023-07-09T02:12:51;101425.44;;;23.86;65.66
51603;BME280;37954;51.980;5.850;2023-07-09T02:17:03;101428.25;;;23.81;65.88
51603;BME280;37954;51.980;5.850;2023-07-09T02:21:15;101432.69;;;23.77;65.96
51603;BME280;37954;51.980;5.850;2023-07-09T02:25:27;101430.31;;;23.70;65.93
51603;BME280;37954;51.980;5.850;2023-07-09T02:29:38;101435.28;;;23.68;66.02
51603;BME280;37954;51.980;5.850;2023-07-09T02:33:50;101419.53;;;23.55;66.20
51603;BME280;37954;51.980;5.850;2023-07-09T02:38:02;101435.47;;;23.53;66.50
51603;BME280;37954;51.980;5.850;2023-07-09T02:42:17;101443.13;;;23.51;66.54
51603;BME280;37954;51.980;5.850;2023-07-09T02:46:29;101439.09;;;23.43;66.49
51603;BME280;37954;51.980;5.850;2023-07-09T02:50:41;101448.19;;;23.39;66.76
51603;BME280;37954;51.980;5.850;2023-07-09T02:54:53;101445.25;;;23.35;66.84
51603;BME280;37954;51.980;5.850;2023-07-09T02:59:05;101434.91;;;23.27;67.07
51603;BME280;37954;51.980;5.850;2023-07-09T03:03:16;101432.75;;;23.24;66.91
51603;BME280;37954;51.980;5.850;2023-07-09T03:07:28;101434.13;;;23.21;67.14
51603;BME280;37954;51.980;5.850;2023-07-09T03:11:40;101438.59;;;23.17;67.07
51603;BME280;37954;51.980;5.850;2023-07-09T03:15:58;101435.59;;;23.14;67.31
51603;BME280;37954;51.980;5.850;2023-07-09T03:20:10;101438.63;;;23.12;67.37
51603;BME280;37954;51.980;5.850;2023-07-09T03:24:22;101448.00;;;23.06;67.42
51603;BME280;37954;51.980;5.850;2023-07-09T03:28:34;101436.34;;;22.96;67.78
51603;BME280;37954;51.980;5.850;2023-07-09T03:32:46;101444.56;;;22.96;67.76
51603;BME280;37954;51.980;5.850;2023-07-09T03:36:58;101442.38;;;22.92;68.25
51603;BME280;37954;51.980;5.850;2023-07-09T03:41:09;101436.38;;;22.90;68.25
51603;BME280;37954;51.980;5.850;2023-07-09T03:45:21;101433.91;;;22.89;68.44
51603;BME280;37954;51.980;5.850;2023-07-09T03:49:33;101441.00;;;22.95;68.46
51603;BME280;37954;51.980;5.850;2023-07-09T03:53:45;101436.88;;;22.98;68.66
51603;BME280;37954;51.980;5.850;2023-07-09T03:57:57;101439.03;;;23.01;68.57
51603;BME280;37954;51.980;5.850;2023-07-09T04:02:08;101439.78;;;23.06;68.79
51603;BME280;37954;51.980;5.850;2023-07-09T04:06:20;101440.28;;;23.13;68.49
51603;BME280;37954;51.980;5.850;2023-07-09T04:10:32;101450.59;;;23.21;68.56
51603;BME280;37954;51.980;5.850;2023-07-09T04:14:44;101448.31;;;23.29;68.45
51603;BME280;37954;51.980;5.850;2023-07-09T04:18:56;101441.41;;;23.36;68.43
51603;BME280;37954;51.980;5.850;2023-07-09T04:23:14;101444.53;;;23.48;68.40
51603;BME280;37954;51.980;5.850;2023-07-09T04:27:26;101443.66;;;23.77;68.51
51603;BME280;37954;51.980;5.850;2023-07-09T04:31:40;101442.94;;;24.46;67.04
51603;BME280;37954;51.980;5.850;2023-07-09T04:35:52;101435.91;;;25.05;65.47
51603;BME280;37954;51.980;5.850;2023-07-09T04:40:05;101439.00;;;25.45;64.20
51603;BME280;37954;51.980;5.850;2023-07-09T04:44:18;101445.91;;;25.83;63.23
51603;BME280;37954;51.980;5.850;2023-07-09T04:48:30;101444.59;;;25.81;62.46
51603;BME280;37954;51.980;5.850;2023-07-09T04:52:41;101450.50;;;25.88;62.44
51603;BME280;37954;51.980;5.850;2023-07-09T04:56:53;101453.50;;;26.14;62.03
51603;BME280;37954;51.980;5.850;2023-07-09T05:01:05;101461.31;;;26.34;62.10
51603;BME280;37954;51.980;5.850;2023-07-09T05:05:17;101455.09;;;26.64;61.77
51603;BME280;37954;51.980;5.850;2023-07-09T05:09:29;101449.84;;;26.85;61.02
51603;BME280;37954;51.980;5.850;2023-07-09T05:13:40;101452.03;;;27.28;60.52
51603;BME280;37954;51.980;5.850;2023-07-09T05:17:52;101459.03;;;27.73;58.63
51603;BME280;37954;51.980;5.850;2023-07-09T05:22:04;101462.97;;;28.07;57.48
51603;BME280;37954;51.980;5.850;2023-07-09T05:26:16;101467.25;;;28.73;56.06
51603;BME280;37954;51.980;5.850;2023-07-09T05:30:28;101473.78;;;29.24;54.37
51603;BME280;37954;51.980;5.850;2023-07-09T05:34:39;101474.34;;;29.56;53.65
51603;BME280;37954;51.980;5.850;2023-07-09T05:38:51;101472.94;;;30.00;52.64
51603;BME280;37954;51.980;5.850;2023-07-09T05:43:03;101474.47;;;30.51;51.33
51603;BME280;37954;51.980;5.850;2023-07-09T05:47:15;101470.09;;;30.71;50.21
51603;BME280;37954;51.980;5.850;2023-07-09T05:51:27;101468.63;;;30.86;49.05
51603;BME280;37954;51.980;5.850;2023-07-09T05:55:39;101468.50;;;31.15;48.61
51603;BME280;37954;51.980;5.850;2023-07-09T05:59:51;101483.44;;;31.47;47.40
51603;BME280;37954;51.980;5.850;2023-07-09T06:04:03;101479.41;;;31.81;46.60
51603;BME280;37954;51.980;5.850;2023-07-09T06:08:16;101475.06;;;32.20;45.23
51603;BME280;37954;51.980;5.850;2023-07-09T06:12:27;101471.06;;;32.61;44.29
51603;BME280;37954;51.980;5.850;2023-07-09T06:16:39;101477.75;;;33.00;43.56
51603;BME280;37954;51.980;5.850;2023-07-09T06:20:53;101476.53;;;33.29;42.60
51603;BME280;37954;51.980;5.850;2023-07-09T06:25:05;101477.22;;;33.58;42.08
51603;BME280;37954;51.980;5.850;2023-07-09T06:29:17;101485.66;;;34.12;41.44
51603;BME280;37954;51.980;5.850;2023-07-09T06:33:29;101496.41;;;34.68;39.74
51603;BME280;37954;51.980;5.850;2023-07-09T06:37:41;101493.94;;;35.05;39.04
51603;BME280;37954;51.980;5.850;2023-07-09T06:41:52;101495.75;;;35.16;38.55
51603;BME280;37954;51.980;5.850;2023-07-09T06:46:26;101489.66;;;35.34;38.34
51603;BME280;37954;51.980;5.850;2023-07-09T06:50:38;101495.31;;;35.60;37.76
51603;BME280;37954;51.980;5.850;2023-07-09T06:54:50;101490.34;;;36.03;37.39
51603;BME280;37954;51.980;5.850;2023-07-09T06:59:02;101502.91;;;36.42;36.88
51603;BME280;37954;51.980;5.850;2023-07-09T07:03:13;101500.75;;;36.62;36.52
51603;BME280;37954;51.980;5.850;2023-07-09T07:07:25;101507.94;;;36.97;35.50
51603;BME280;37954;51.980;5.850;2023-07-09T07:11:37;101504.22;;;37.22;34.62
51603;BME280;37954;51.980;5.850;2023-07-09T07:15:49;101512.47;;;37.52;34.43
51603;BME280;37954;51.980;5.850;2023-07-09T07:20:03;101506.75;;;37.89;33.91
51603;BME280;37954;51.980;5.850;2023-07-09T07:24:16;101505.72;;;38.19;33.77
51603;BME280;37954;51.980;5.850;2023-07-09T07:28:27;101499.03;;;38.52;33.72
51603;BME280;37954;51.980;5.850;2023-07-09T07:32:45;101492.28;;;38.60;32.78
51603;BME280;37954;51.980;5.850;2023-07-09T07:36:57;101488.28;;;38.61;32.44
51603;BME280;37954;51.980;5.850;2023-07-09T07:41:09;101480.72;;;38.93;32.56
51603;BME280;37954;51.980;5.850;2023-07-09T07:45:20;101487.56;;;39.24;31.85
51603;BME280;37954;51.980;5.850;2023-07-09T07:49:32;101484.75;;;39.31;31.50
51603;BME280;37954;51.980;5.850;2023-07-09T07:53:44;101482.31;;;39.73;31.45
51603;BME280;37954;51.980;5.850;2023-07-09T07:57:56;101489.97;;;39.79;30.40
51603;BME280;37954;51.980;5.850;2023-07-09T08:02:12;101483.91;;;39.98;30.47
51603;BME280;37954;51.980;5.850;2023-07-09T08:06:24;101489.00;;;40.25;29.80
51603;BME280;37954;51.980;5.850;2023-07-09T08:10:36;101489.03;;;40.32;29.40
51603;BME280;37954;51.980;5.850;2023-07-09T08:14:47;101484.56;;;40.38;29.97
51603;BME280;37954;51.980;5.850;2023-07-09T08:18:59;101491.31;;;40.55;29.29
51603;BME280;37954;51.980;5.850;2023-07-09T08:23:11;101487.56;;;40.72;28.77
51603;BME280;37954;51.980;5.850;2023-07-09T08:27:22;101490.78;;;40.81;28.26
51603;BME280;37954;51.980;5.850;2023-07-09T08:31:34;101483.41;;;40.98;28.38
51603;BME280;37954;51.980;5.850;2023-07-09T08:35:49;101468.94;;;40.92;28.03
51603;BME280;37954;51.980;5.850;2023-07-09T08:40:01;101472.03;;;41.09;28.33
51603;BME280;37954;51.980;5.850;2023-07-09T08:48:46;101478.22;;;41.41;27.98
51603;BME280;37954;51.980;5.850;2023-07-09T08:52:58;101487.31;;;41.63;27.30
51603;BME280;37954;51.980;5.850;2023-07-09T09:02:22;101475.53;;;41.72;26.90
51603;BME280;37954;51.980;5.850;2023-07-09T09:06:41;101470.06;;;41.54;26.74
51603;BME280;37954;51.980;5.850;2023-07-09T09:15:18;101462.00;;;41.52;27.10
51603;BME280;37954;51.980;5.850;2023-07-09T09:19:43;101469.50;;;41.69;26.68
51603;BME280;37954;51.980;5.850;2023-07-09T09:23:57;101456.06;;;41.81;26.55
51603;BME280;37954;51.980;5.850;2023-07-09T09:28:10;101457.22;;;41.87;26.64
51603;BME280;37954;51.980;5.850;2023-07-09T09:32:31;101457.19;;;42.24;26.40
51603;BME280;37954;51.980;5.850;2023-07-09T09:36:48;101454.25;;;42.31;26.04
51603;BME280;37954;51.980;5.850;2023-07-09T09:41:00;101455.78;;;42.36;26.41
51603;BME280;37954;51.980;5.850;2023-07-09T09:45:16;101454.38;;;42.78;25.93
51603;BME280;37954;51.980;5.850;2023-07-09T09:49:29;101460.41;;;43.07;25.63
51603;BME280;37954;51.980;5.850;2023-07-09T09:53:46;101457.03;;;43.39;25.63
51603;BME280;37954;51.980;5.850;2023-07-09T09:57:59;101459.19;;;43.31;25.64
51603;BME280;37954;51.980;5.850;2023-07-09T10:02:23;101458.16;;;43.45;24.95
51603;BME280;37954;51.980;5.850;2023-07-09T10:06:41;101450.09;;;43.44;24.96
51603;BME280;37954;51.980;5.850;2023-07-09T10:10:58;101455.28;;;43.25;23.98
51603;BME280;37954;51.980;5.850;2023-07-09T10:19:44;101441.56;;;43.24;24.76
51603;BME280;37954;51.980;5.850;2023-07-09T10:33:16;101410.22;;;43.78;23.81
51603;BME280;37954;51.980;5.850;2023-07-09T10:37:38;101422.97;;;43.66;23.44
51603;BME280;37954;51.980;5.850;2023-07-09T10:41:56;101415.81;;;43.81;23.25
51603;BME280;37954;51.980;5.850;2023-07-09T10:46:15;101422.75;;;43.96;23.46
51603;BME280;37954;51.980;5.850;2023-07-09T10:50:38;101417.63;;;44.11;22.88
51603;BME280;37954;51.980;5.850;2023-07-09T10:59:31;101431.03;;;43.67;23.83
51603;BME280;37954;51.980;5.850;2023-07-09T11:03:49;101423.03;;;43.43;23.71
51603;BME280;37954;51.980;5.850;2023-07-09T11:08:06;101442.03;;;43.42;23.50
51603;BME280;37954;51.980;5.850;2023-07-09T11:16:38;101430.03;;;43.34;23.77
51603;BME280;37954;51.980;5.850;2023-07-09T11:21:15;101423.19;;;43.32;23.44
51603;BME280;37954;51.980;5.850;2023-07-09T11:25:31;101411.91;;;43.09;23.33
51603;BME280;37954;51.980;5.850;2023-07-09T11:29:48;101400.53;;;42.89;23.59
51603;BME280;37954;51.980;5.850;2023-07-09T11:38:23;101380.31;;;42.63;24.06
51603;BME280;37954;51.980;5.850;2023-07-09T11:42:54;101382.66;;;42.68;23.50
51603;BME280;37954;51.980;5.850;2023-07-09T11:47:27;101384.59;;;42.48;23.79
51603;BME280;37954;51.980;5.850;2023-07-09T11:51:50;101379.50;;;42.36;24.40
51603;BME280;37954;51.980;5.850;2023-07-09T11:56:04;101386.22;;;42.19;24.56
51603;BME280;37954;51.980;5.850;2023-07-09T12:00:16;101390.94;;;41.98;24.85
51603;BME280;37954;51.980;5.850;2023-07-09T12:04:32;101400.16;;;41.68;25.48
51603;BME280;37954;51.980;5.850;2023-07-09T12:08:46;101401.78;;;41.28;25.92
51603;BME280;37954;51.980;5.850;2023-07-09T12:13:00;101394.75;;;41.02;25.59
51603;BME280;37954;51.980;5.850;2023-07-09T12:17:11;101397.38;;;40.79;25.82
51603;BME280;37954;51.980;5.850;2023-07-09T12:21:24;101398.69;;;40.60;25.77
51603;BME280;37954;51.980;5.850;2023-07-09T12:25:36;101393.56;;;40.45;26.17
51603;BME280;37954;51.980;5.850;2023-07-09T12:29:51;101400.50;;;40.26;26.88
51603;BME280;37954;51.980;5.850;2023-07-09T12:34:02;101382.28;;;39.61;29.21
51603;BME280;37954;51.980;5.850;2023-07-09T12:38:19;101381.53;;;38.82;31.43
51603;BME280;37954;51.980;5.850;2023-07-09T12:42:35;101378.16;;;38.09;33.51
51603;BME280;37954;51.980;5.850;2023-07-09T12:46:50;101379.09;;;37.55;35.23
51603;BME280;37954;51.980;5.850;2023-07-09T12:51:07;101369.34;;;37.35;37.00
51603;BME280;37954;51.980;5.850;2023-07-09T12:55:26;101354.22;;;37.50;37.56
51603;BME280;37954;51.980;5.850;2023-07-09T12:59:39;101337.16;;;37.83;36.63
51603;BME280;37954;51.980;5.850;2023-07-09T13:03:55;101327.69;;;38.27;35.96
51603;BME280;37954;51.980;5.850;2023-07-09T13:08:13;101332.94;;;38.53;35.60
51603;BME280;37954;51.980;5.850;2023-07-09T13:12:32;101348.63;;;38.61;34.65
51603;BME280;37954;51.980;5.850;2023-07-09T13:16:44;101347.41;;;38.59;34.04
51603;BME280;37954;51.980;5.850;2023-07-09T13:20:58;101346.16;;;38.49;34.21
51603;BME280;37954;51.980;5.850;2023-07-09T13:25:11;101344.50;;;38.20;34.81
51603;BME280;37954;51.980;5.850;2023-07-09T13:29:26;101352.44;;;38.00;35.14
51603;BME280;37954;51.980;5.850;2023-07-09T13:33:38;101354.38;;;37.75;34.65
51603;BME280;37954;51.980;5.850;2023-07-09T13:37:50;101344.06;;;37.27;34.27
51603;BME280;37954;51.980;5.850;2023-07-09T13:42:03;101335.91;;;37.05;34.70
51603;BME280;37954;51.980;5.850;2023-07-09T13:46:15;101332.16;;;36.90;35.05
51603;BME280;37954;51.980;5.850;2023-07-09T13:50:27;101330.72;;;36.63;35.44
51603;BME280;37954;51.980;5.850;2023-07-09T13:54:38;101337.84;;;36.19;36.65
51603;BME280;37954;51.980;5.850;2023-07-09T13:58:50;101351.53;;;35.91;37.36
51603;BME280;37954;51.980;5.850;2023-07-09T14:03:03;101370.63;;;35.55;38.69
51603;BME280;37954;51.980;5.850;2023-07-09T14:07:27;101388.22;;;34.84;39.58
51603;BME280;37954;51.980;5.850;2023-07-09T14:11:43;101385.94;;;34.47;39.58
51603;BME280;37954;51.980;5.850;2023-07-09T14:15:56;101370.72;;;33.83;40.27
51603;BME280;37954;51.980;5.850;2023-07-09T14:20:11;101349.28;;;33.33;41.15
51603;BME280;37954;51.980;5.850;2023-07-09T14:24:26;101365.28;;;33.05;40.98
51603;BME280;37954;51.980;5.850;2023-07-09T14:28:38;101365.34;;;32.61;41.39
51603;BME280;37954;51.980;5.850;2023-07-09T14:32:51;101363.31;;;32.30;41.74
51603;BME280;37954;51.980;5.850;2023-07-09T14:37:04;101363.16;;;31.71;41.63
51603;BME280;37954;51.980;5.850;2023-07-09T14:41:21;101388.78;;;31.40;42.46
51603;BME280;37954;51.980;5.850;2023-07-09T14:45:35;101381.03;;;31.33;42.69
51603;BME280;37954;51.980;5.850;2023-07-09T14:49:50;101422.00;;;31.12;43.31
51603;BME280;37954;51.980;5.850;2023-07-09T14:54:02;101557.41;;;30.86;44.39
51603;BME280;37954;51.980;5.850;2023-07-09T14:58:19;101576.59;;;30.58;45.75
51603;BME280;37954;51.980;5.850;2023-07-09T15:02:36;101550.81;;;29.77;48.90
51603;BME280;37954;51.980;5.850;2023-07-09T15:06:49;101560.53;;;29.37;50.79
51603;BME280;37954;51.980;5.850;2023-07-09T15:11:01;101586.19;;;28.91;52.95
51603;BME280;37954;51.980;5.850;2023-07-09T15:15:25;101574.91;;;28.61;54.79
51603;BME280;37954;51.980;5.850;2023-07-09T15:19:37;101532.44;;;28.40;56.36
51603;BME280;37954;51.980;5.850;2023-07-09T15:23:49;101513.13;;;28.31;57.60
51603;BME280;37954;51.980;5.850;2023-07-09T15:28:01;101495.22;;;28.20;58.57
51603;BME280;37954;51.980;5.850;2023-07-09T15:32:13;101523.78;;;28.16;58.61
51603;BME280;37954;51.980;5.850;2023-07-09T15:36:25;101534.34;;;28.14;58.75
51603;BME280;37954;51.980;5.850;2023-07-09T15:40:37;101567.69;;;28.17;58.49
51603;BME280;37954;51.980;5.850;2023-07-09T15:44:49;101595.66;;;28.16;58.31
51603;BME280;37954;51.980;5.850;2023-07-09T15:49:00;101533.44;;;28.35;58.56
51603;BME280;37954;51.980;5.850;2023-07-09T15:53:12;101531.19;;;28.55;58.92
51603;BME280;37954;51.980;5.850;2023-07-09T15:57:25;101494.09;;;28.47;59.91
51603;BME280;37954;51.980;5.850;2023-07-09T16:01:53;101498.31;;;28.45;59.94
51603;BME280;37954;51.980;5.850;2023-07-09T16:06:05;101493.09;;;28.43;59.67
51603;BME280;37954;51.980;5.850;2023-07-09T16:10:17;101498.47;;;28.48;59.22
51603;BME280;37954;51.980;5.850;2023-07-09T16:14:31;101501.41;;;28.52;59.18
51603;BME280;37954;51.980;5.850;2023-07-09T16:18:44;101494.75;;;28.35;59.27
51603;BME280;37954;51.980;5.850;2023-07-09T16:22:57;101493.91;;;28.26;60.20
51603;BME280;37954;51.980;5.850;2023-07-09T16:27:12;101478.78;;;28.15;60.20
51603;BME280;37954;51.980;5.850;2023-07-09T16:31:26;101478.06;;;27.92;60.40
51603;BME280;37954;51.980;5.850;2023-07-09T16:35:38;101471.50;;;27.62;61.28
51603;BME280;37954;51.980;5.850;2023-07-09T16:39:49;101465.00;;;27.58;61.36
51603;BME280;37954;51.980;5.850;2023-07-09T16:44:01;101473.16;;;27.32;61.51
51603;BME280;37954;51.980;5.850;2023-07-09T16:48:21;101475.25;;;27.27;61.35
51603;BME280;37954;51.980;5.850;2023-07-09T16:52:33;101469.50;;;27.15;61.82
51603;BME280;37954;51.980;5.850;2023-07-09T16:56:45;101465.94;;;27.14;61.92
51603;BME280;37954;51.980;5.850;2023-07-09T17:00:57;101472.84;;;27.03;61.86
51603;BME280;37954;51.980;5.850;2023-07-09T17:05:09;101478.59;;;26.93;62.25
51603;BME280;37954;51.980;5.850;2023-07-09T17:09:21;101465.91;;;26.83;62.33
51603;BME280;37954;51.980;5.850;2023-07-09T17:13:32;101467.47;;;26.76;62.65
51603;BME280;37954;51.980;5.850;2023-07-09T17:17:44;101480.34;;;26.89;62.70
51603;BME280;37954;51.980;5.850;2023-07-09T17:21:57;101491.53;;;27.06;62.18
51603;BME280;37954;51.980;5.850;2023-07-09T17:26:10;101497.91;;;27.15;61.24
51603;BME280;37954;51.980;5.850;2023-07-09T17:30:22;101502.53;;;27.28;61.47
51603;BME280;37954;51.980;5.850;2023-07-09T17:34:34;101511.19;;;27.35;61.29
51603;BME280;37954;51.980;5.850;2023-07-09T17:38:48;101525.06;;;27.53;60.74
51603;BME280;37954;51.980;5.850;2023-07-09T17:43:01;101546.06;;;27.62;60.53
51603;BME280;37954;51.980;5.850;2023-07-09T17:47:15;101564.75;;;27.65;60.09
51603;BME280;37954;51.980;5.850;2023-07-09T17:51:27;101574.97;;;27.65;59.29
51603;BME280;37954;51.980;5.850;2023-07-09T17:55:39;101584.78;;;27.49;59.35
51603;BME280;37954;51.980;5.850;2023-07-09T17:59:50;101575.31;;;27.19;59.65
51603;BME280;37954;51.980;5.850;2023-07-09T18:04:13;101587.03;;;27.16;59.74
51603;BME280;37954;51.980;5.850;2023-07-09T18:08:40;101588.53;;;26.99;59.87
51603;BME280;37954;51.980;5.850;2023-07-09T18:12:52;101585.78;;;26.86;60.34
51603;BME280;37954;51.980;5.850;2023-07-09T18:17:22;101604.63;;;26.70;60.68
51603;BME280;37954;51.980;5.850;2023-07-09T18:21:34;101610.28;;;26.65;61.07
51603;BME280;37954;51.980;5.850;2023-07-09T18:25:46;101611.28;;;26.55;61.26
51603;BME280;37954;51.980;5.850;2023-07-09T18:29:58;101587.44;;;26.37;61.72
51603;BME280;37954;51.980;5.850;2023-07-09T18:34:10;101579.19;;;26.10;62.33
51603;BME280;37954;51.980;5.850;2023-07-09T18:38:21;101585.81;;;26.09;62.87
51603;BME280;37954;51.980;5.850;2023-07-09T18:42:33;101560.72;;;25.83;63.11
51603;BME280;37954;51.980;5.850;2023-07-09T18:46:46;101549.31;;;25.76;63.49
51603;BME280;37954;51.980;5.850;2023-07-09T18:50:58;101564.59;;;25.68;64.06
51603;BME280;37954;51.980;5.850;2023-07-09T18:55:19;101561.16;;;25.62;64.45
51603;BME280;37954;51.980;5.850;2023-07-09T18:59:31;101557.00;;;25.46;64.41
51603;BME280;37954;51.980;5.850;2023-07-09T19:03:45;101581.19;;;25.63;64.42
51603;BME280;37954;51.980;5.850;2023-07-09T19:07:58;101585.84;;;25.49;65.23
51603;BME280;37954;51.980;5.850;2023-07-09T19:12:10;101554.91;;;25.11;66.03
51603;BME280;37954;51.980;5.850;2023-07-09T19:16:26;101583.88;;;25.03;66.58
51603;BME280;37954;51.980;5.850;2023-07-09T19:20:39;101589.81;;;24.91;67.07
51603;BME280;37954;51.980;5.850;2023-07-09T19:24:51;101573.16;;;24.83;67.36
51603;BME280;37954;51.980;5.850;2023-07-09T19:29:03;101578.25;;;24.76;67.30
51603;BME280;37954;51.980;5.850;2023-07-09T19:33:23;101556.75;;;24.59;67.73
51603;BME280;37954;51.980;5.850;2023-07-09T19:37:35;101538.56;;;24.25;68.37
51603;BME280;37954;51.980;5.850;2023-07-09T19:41:49;101553.00;;;24.12;69.41
51603;BME280;37954;51.980;5.850;2023-07-09T19:46:01;101547.94;;;24.01;70.29
51603;BME280;37954;51.980;5.850;2023-07-09T19:54:32;101568.19;;;24.05;71.29
51603;BME280;37954;51.980;5.850;2023-07-09T19:58:44;101576.88;;;24.12;70.51
51603;BME280;37954;51.980;5.850;2023-07-09T20:02:56;101561.75;;;24.14;70.47
51603;BME280;37954;51.980;5.850;2023-07-09T20:07:09;101575.91;;;24.26;69.82
51603;BME280;37954;51.980;5.850;2023-07-09T20:11:21;101598.69;;;24.27;69.82
51603;BME280;37954;51.980;5.850;2023-07-09T20:15:33;101611.84;;;24.30;69.51
51603;BME280;37954;51.980;5.850;2023-07-09T20:19:45;101624.41;;;24.36;69.38
51603;BME280;37954;51.980;5.850;2023-07-09T20:23:57;101625.13;;;24.42;69.21
51603;BME280;37954;51.980;5.850;2023-07-09T20:28:25;101617.81;;;24.37;69.55
51603;BME280;37954;51.980;5.850;2023-07-09T20:32:38;101617.91;;;24.27;69.96
51603;BME280;37954;51.980;5.850;2023-07-09T20:36:50;101620.22;;;24.15;70.52
51603;BME280;37954;51.980;5.850;2023-07-09T20:41:02;101617.09;;;24.03;70.69
51603;BME280;37954;51.980;5.850;2023-07-09T20:45:21;101619.88;;;23.98;71.11
51603;BME280;37954;51.980;5.850;2023-07-09T20:49:34;101610.06;;;23.91;71.36
51603;BME280;37954;51.980;5.850;2023-07-09T20:53:47;101606.28;;;23.87;71.83
51603;BME280;37954;51.980;5.850;2023-07-09T20:57:59;101598.06;;;23.87;71.71
51603;BME280;37954;51.980;5.850;2023-07-09T21:02:20;101619.00;;;23.78;72.20
51603;BME280;37954;51.980;5.850;2023-07-09T21:06:32;101625.41;;;23.69;72.11
51603;BME280;37954;51.980;5.850;2023-07-09T21:10:45;101623.53;;;23.64;72.47
51603;BME280;37954;51.980;5.850;2023-07-09T21:14:57;101611.31;;;23.46;73.21
51603;BME280;37954;51.980;5.850;2023-07-09T21:23:29;101628.44;;;23.33;74.46
51603;BME280;37954;51.980;5.850;2023-07-09T21:27:40;101653.88;;;23.39;74.29
51603;BME280;37954;51.980;5.850;2023-07-09T21:31:54;101641.81;;;23.40;74.40
51603;BME280;37954;51.980;5.850;2023-07-09T21:36:07;101622.84;;;23.43;74.37
51603;BME280;37954;51.980;5.850;2023-07-09T21:40:30;101630.53;;;23.46;74.48
51603;BME280;37954;51.980;5.850;2023-07-09T21:44:42;101644.13;;;23.27;75.00
51603;BME280;37954;51.980;5.850;2023-07-09T21:48:54;101659.50;;;23.23;75.28
51603;BME280;37954;51.980;5.850;2023-07-09T21:53:14;101663.06;;;23.24;75.21
51603;BME280;37954;51.980;5.850;2023-07-09T21:57:26;101637.84;;;23.22;75.35
51603;BME280;37954;51.980;5.850;2023-07-09T22:01:38;101649.84;;;23.31;75.13
51603;BME280;37954;51.980;5.850;2023-07-09T22:05:53;101641.91;;;23.30;74.91
51603;BME280;37954;51.980;5.850;2023-07-09T22:10:05;101631.78;;;23.25;75.12
51603;BME280;37954;51.980;5.850;2023-07-09T22:14:19;101643.13;;;23.13;75.36
51603;BME280;37954;51.980;5.850;2023-07-09T22:18:32;101664.53;;;23.06;75.84
51603;BME280;37954;51.980;5.850;2023-07-09T22:22:45;101655.88;;;22.94;76.25
51603;BME280;37954;51.980;5.850;2023-07-09T22:26:57;101651.28;;;22.84;76.86
51603;BME280;37954;51.980;5.850;2023-07-09T22:31:11;101635.47;;;22.66;77.62
51603;BME280;37954;51.980;5.850;2023-07-09T22:35:28;101633.84;;;22.55;77.92
51603;BME280;37954;51.980;5.850;2023-07-09T22:39:41;101645.13;;;22.48;78.14
51603;BME280;37954;51.980;5.850;2023-07-09T22:43:53;101648.72;;;22.39;78.22
51603;BME280;37954;51.980;5.850;2023-07-09T22:48:05;101643.28;;;22.29;78.86
51603;BME280;37954;51.980;5.850;2023-07-09T22:52:17;101656.44;;;22.21;79.11
51603;BME280;37954;51.980;5.850;2023-07-09T22:56:29;101653.19;;;22.14;79.36
51603;BME280;37954;51.980;5.850;2023-07-09T23:00:57;101656.47;;;22.11;79.50
51603;BME280;37954;51.980;5.850;2023-07-09T23:05:14;101661.69;;;22.03;79.80